Terminal Aerodrome Forecast
Issued by NWS Kansas City/Pleasant Hill, MO

Home | Current Version | Previous Version | Text Only | Print | Product List | Glossary On
Versions: 1 2 3 4 5 6 7 8 9 10 11 12 13 14 15 16
000
FTUS43 KEAX 211000 AAA
TAFMCI
TAF AMD
KMCI 211010Z 2110/2206 20007KT P6SM VCSH OVC070
     FM211500 28009KT 4SM -SHRA VCTS BKN030CB
     FM212200 31010KT P6SM SCT030=

USA.gov is the U.S. government's official web portal to all federal, state and local government web resources and services.